sensor_id;sensor_type;location;lat;lon;timestamp;pressure;altitude;pressure_sealevel;temperature;humidity
24390;BME280;12510;56.468;-3.004;2023-08-06T00:01:22;100539.84;;;14.28;100.00
24390;BME280;12510;56.468;-3.004;2023-08-06T00:03:49;100538.19;;;14.35;100.00
24390;BME280;12510;56.468;-3.004;2023-08-06T00:06:15;100542.16;;;14.39;100.00
24390;BME280;12510;56.468;-3.004;2023-08-06T00:08:42;100544.47;;;14.42;100.00
24390;BME280;12510;56.468;-3.004;2023-08-06T00:11:08;100543.81;;;14.40;100.00
24390;BME280;12510;56.468;-3.004;2023-08-06T00:13:35;100540.38;;;14.40;100.00
24390;BME280;12510;56.468;-3.004;2023-08-06T00:16:11;100535.38;;;14.45;100.00
24390;BME280;12510;56.468;-3.004;2023-08-06T00:18:38;100538.88;;;14.37;100.00
24390;BME280;12510;56.468;-3.004;2023-08-06T00:21:05;100541.81;;;14.42;100.00
24390;BME280;12510;56.468;-3.004;2023-08-06T00:23:31;100554.25;;;14.34;100.00
24390;BME280;12510;56.468;-3.004;2023-08-06T00:25:58;100541.63;;;14.19;100.00
24390;BME280;12510;56.468;-3.004;2023-08-06T00:28:24;100539.00;;;14.28;100.00
24390;BME280;12510;56.468;-3.004;2023-08-06T00:30:55;100544.97;;;14.30;100.00
24390;BME280;12510;56.468;-3.004;2023-08-06T00:33:25;100547.94;;;14.27;100.00
24390;BME280;12510;56.468;-3.004;2023-08-06T00:35:51;100559.34;;;14.19;100.00
24390;BME280;12510;56.468;-3.004;2023-08-06T00:38:18;100562.63;;;14.04;100.00
24390;BME280;12510;56.468;-3.004;2023-08-06T00:40:44;100556.34;;;14.05;100.00
24390;BME280;12510;56.468;-3.004;2023-08-06T00:43:11;100552.34;;;14.01;100.00
24390;BME280;12510;56.468;-3.004;2023-08-06T00:45:38;100548.03;;;13.92;100.00
24390;BME280;12510;56.468;-3.004;2023-08-06T00:48:05;100537.88;;;13.79;100.00
24390;BME280;12510;56.468;-3.004;2023-08-06T00:50:33;100546.78;;;13.78;100.00
24390;BME280;12510;56.468;-3.004;2023-08-06T00:53:00;100546.97;;;13.77;100.00
24390;BME280;12510;56.468;-3.004;2023-08-06T00:55:27;100560.50;;;13.73;100.00
24390;BME280;12510;56.468;-3.004;2023-08-06T00:57:54;100553.53;;;13.64;100.00
24390;BME280;12510;56.468;-3.004;2023-08-06T01:00:22;100558.13;;;13.62;100.00
24390;BME280;12510;56.468;-3.004;2023-08-06T01:02:50;100561.94;;;13.60;100.00
24390;BME280;12510;56.468;-3.004;2023-08-06T01:05:16;100563.09;;;13.57;100.00
24390;BME280;12510;56.468;-3.004;2023-08-06T01:10:50;100560.53;;;13.47;100.00
24390;BME280;12510;56.468;-3.004;2023-08-06T01:15:47;100541.75;;;13.32;100.00
24390;BME280;12510;56.468;-3.004;2023-08-06T01:18:16;100551.91;;;13.37;100.00
24390;BME280;12510;56.468;-3.004;2023-08-06T01:20:42;100559.44;;;13.32;100.00
24390;BME280;12510;56.468;-3.004;2023-08-06T01:23:08;100559.06;;;13.27;100.00
24390;BME280;12510;56.468;-3.004;2023-08-06T01:26:02;100544.50;;;13.22;100.00
24390;BME280;12510;56.468;-3.004;2023-08-06T01:28:59;100550.94;;;13.20;100.00
24390;BME280;12510;56.468;-3.004;2023-08-06T01:31:31;100551.38;;;13.15;100.00
24390;BME280;12510;56.468;-3.004;2023-08-06T01:33:59;100553.53;;;13.12;100.00
24390;BME280;12510;56.468;-3.004;2023-08-06T01:36:26;100551.66;;;13.04;100.00
24390;BME280;12510;56.468;-3.004;2023-08-06T01:38:54;100553.94;;;12.99;100.00
24390;BME280;12510;56.468;-3.004;2023-08-06T01:41:20;100564.81;;;12.96;100.00
24390;BME280;12510;56.468;-3.004;2023-08-06T01:43:47;100571.56;;;12.90;100.00
24390;BME280;12510;56.468;-3.004;2023-08-06T01:46:13;100583.25;;;12.87;100.00
24390;BME280;12510;56.468;-3.004;2023-08-06T01:48:40;100585.69;;;12.81;100.00
24390;BME280;12510;56.468;-3.004;2023-08-06T01:51:06;100582.66;;;12.76;100.00
24390;BME280;12510;56.468;-3.004;2023-08-06T01:53:33;100584.59;;;12.73;100.00
24390;BME280;12510;56.468;-3.004;2023-08-06T01:56:00;100580.22;;;12.64;100.00
24390;BME280;12510;56.468;-3.004;2023-08-06T01:58:26;100579.56;;;12.62;100.00
24390;BME280;12510;56.468;-3.004;2023-08-06T02:00:53;100589.59;;;12.58;100.00
24390;BME280;12510;56.468;-3.004;2023-08-06T02:03:19;100580.78;;;12.50;100.00
24390;BME280;12510;56.468;-3.004;2023-08-06T02:05:48;100584.66;;;12.46;100.00
24390;BME280;12510;56.468;-3.004;2023-08-06T02:08:15;100592.75;;;12.44;100.00
24390;BME280;12510;56.468;-3.004;2023-08-06T02:10:41;100596.97;;;12.37;100.00
24390;BME280;12510;56.468;-3.004;2023-08-06T02:13:08;100586.03;;;12.32;100.00
24390;BME280;12510;56.468;-3.004;2023-08-06T02:15:34;100582.72;;;12.30;100.00
24390;BME280;12510;56.468;-3.004;2023-08-06T02:18:00;100583.00;;;12.27;100.00
24390;BME280;12510;56.468;-3.004;2023-08-06T02:20:28;100596.66;;;12.22;100.00
24390;BME280;12510;56.468;-3.004;2023-08-06T02:22:54;100591.94;;;12.16;100.00
24390;BME280;12510;56.468;-3.004;2023-08-06T02:25:21;100600.19;;;12.13;100.00
24390;BME280;12510;56.468;-3.004;2023-08-06T02:27:47;100602.41;;;12.07;100.00
24390;BME280;12510;56.468;-3.004;2023-08-06T02:30:14;100591.88;;;12.07;100.00
24390;BME280;12510;56.468;-3.004;2023-08-06T02:32:40;100595.19;;;12.10;100.00
24390;BME280;12510;56.468;-3.004;2023-08-06T02:35:07;100582.66;;;12.12;100.00
24390;BME280;12510;56.468;-3.004;2023-08-06T02:37:34;100585.41;;;12.20;100.00
24390;BME280;12510;56.468;-3.004;2023-08-06T02:40:01;100589.53;;;12.22;100.00
24390;BME280;12510;56.468;-3.004;2023-08-06T02:42:27;100588.19;;;12.18;100.00
24390;BME280;12510;56.468;-3.004;2023-08-06T02:44:54;100588.72;;;12.22;100.00
24390;BME280;12510;56.468;-3.004;2023-08-06T02:47:23;100583.97;;;12.26;100.00
24390;BME280;12510;56.468;-3.004;2023-08-06T02:49:50;100582.84;;;12.28;100.00
24390;BME280;12510;56.468;-3.004;2023-08-06T02:52:16;100583.38;;;12.32;100.00
24390;BME280;12510;56.468;-3.004;2023-08-06T02:54:43;100584.06;;;12.34;100.00
24390;BME280;12510;56.468;-3.004;2023-08-06T02:57:10;100580.81;;;12.40;100.00
24390;BME280;12510;56.468;-3.004;2023-08-06T02:59:36;100580.81;;;12.40;100.00
24390;BME280;12510;56.468;-3.004;2023-08-06T03:02:16;100579.53;;;12.44;100.00
24390;BME280;12510;56.468;-3.004;2023-08-06T03:04:56;100575.19;;;12.53;100.00
24390;BME280;12510;56.468;-3.004;2023-08-06T03:07:26;100591.78;;;12.63;100.00
24390;BME280;12510;56.468;-3.004;2023-08-06T03:09:57;100588.16;;;12.64;100.00
24390;BME280;12510;56.468;-3.004;2023-08-06T03:12:25;100591.50;;;12.66;100.00
24390;BME280;12510;56.468;-3.004;2023-08-06T03:14:51;100584.22;;;12.68;100.00
24390;BME280;12510;56.468;-3.004;2023-08-06T03:17:17;100583.63;;;12.74;100.00
24390;BME280;12510;56.468;-3.004;2023-08-06T03:19:44;100587.47;;;12.80;100.00
24390;BME280;12510;56.468;-3.004;2023-08-06T03:22:12;100592.31;;;12.85;100.00
24390;BME280;12510;56.468;-3.004;2023-08-06T03:24:39;100592.97;;;12.87;100.00
24390;BME280;12510;56.468;-3.004;2023-08-06T03:27:05;100592.69;;;12.90;100.00
24390;BME280;12510;56.468;-3.004;2023-08-06T03:29:32;100590.97;;;12.81;100.00
24390;BME280;12510;56.468;-3.004;2023-08-06T03:32:01;100619.13;;;12.90;100.00
24390;BME280;12510;56.468;-3.004;2023-08-06T03:34:28;100637.75;;;12.88;100.00
24390;BME280;12510;56.468;-3.004;2023-08-06T03:36:54;100643.56;;;12.92;100.00
24390;BME280;12510;56.468;-3.004;2023-08-06T03:39:21;100664.78;;;13.00;100.00
24390;BME280;12510;56.468;-3.004;2023-08-06T03:41:47;100675.75;;;13.05;100.00
24390;BME280;12510;56.468;-3.004;2023-08-06T03:44:14;100674.38;;;13.01;100.00
24390;BME280;12510;56.468;-3.004;2023-08-06T03:46:41;100678.22;;;13.07;100.00
24390;BME280;12510;56.468;-3.004;2023-08-06T03:49:09;100678.94;;;13.09;100.00
24390;BME280;12510;56.468;-3.004;2023-08-06T03:51:35;100681.41;;;13.11;100.00
24390;BME280;12510;56.468;-3.004;2023-08-06T03:54:02;100685.72;;;13.12;100.00
24390;BME280;12510;56.468;-3.004;2023-08-06T03:56:30;100687.91;;;13.16;100.00
24390;BME280;12510;56.468;-3.004;2023-08-06T03:58:56;100685.94;;;13.18;100.00
24390;BME280;12510;56.468;-3.004;2023-08-06T04:01:24;100691.91;;;13.20;100.00
24390;BME280;12510;56.468;-3.004;2023-08-06T04:03:50;100692.06;;;13.19;100.00
24390;BME280;12510;56.468;-3.004;2023-08-06T04:06:17;100694.25;;;13.23;100.00
24390;BME280;12510;56.468;-3.004;2023-08-06T04:08:43;100689.09;;;13.22;100.00
24390;BME280;12510;56.468;-3.004;2023-08-06T04:11:09;100698.53;;;13.24;100.00
24390;BME280;12510;56.468;-3.004;2023-08-06T04:13:36;100697.56;;;13.25;100.00
24390;BME280;12510;56.468;-3.004;2023-08-06T04:16:03;100694.09;;;13.25;100.00
24390;BME280;12510;56.468;-3.004;2023-08-06T04:18:30;100698.94;;;13.30;100.00
24390;BME280;12510;56.468;-3.004;2023-08-06T04:20:57;100700.44;;;13.32;100.00
24390;BME280;12510;56.468;-3.004;2023-08-06T04:23:24;100706.03;;;13.29;100.00
24390;BME280;12510;56.468;-3.004;2023-08-06T04:25:57;100702.91;;;13.34;100.00
24390;BME280;12510;56.468;-3.004;2023-08-06T04:28:26;100706.94;;;13.38;100.00
24390;BME280;12510;56.468;-3.004;2023-08-06T04:30:53;100698.88;;;13.39;100.00
24390;BME280;12510;56.468;-3.004;2023-08-06T04:33:20;100710.28;;;13.40;100.00
24390;BME280;12510;56.468;-3.004;2023-08-06T04:35:47;100712.94;;;13.40;100.00
24390;BME280;12510;56.468;-3.004;2023-08-06T04:38:19;100724.06;;;13.44;100.00
24390;BME280;12510;56.468;-3.004;2023-08-06T04:40:46;100722.06;;;13.46;100.00
24390;BME280;12510;56.468;-3.004;2023-08-06T04:43:12;100728.88;;;13.48;100.00
24390;BME280;12510;56.468;-3.004;2023-08-06T04:45:45;100728.44;;;13.53;100.00
24390;BME280;12510;56.468;-3.004;2023-08-06T04:48:18;100735.34;;;13.54;100.00
24390;BME280;12510;56.468;-3.004;2023-08-06T04:50:46;100728.94;;;13.56;100.00
24390;BME280;12510;56.468;-3.004;2023-08-06T04:53:13;100726.59;;;13.53;100.00
24390;BME280;12510;56.468;-3.004;2023-08-06T04:55:39;100728.78;;;13.58;100.00
24390;BME280;12510;56.468;-3.004;2023-08-06T04:58:06;100726.66;;;13.62;100.00
24390;BME280;12510;56.468;-3.004;2023-08-06T05:00:33;100729.41;;;13.52;100.00
24390;BME280;12510;56.468;-3.004;2023-08-06T05:03:00;100726.81;;;13.60;100.00
24390;BME280;12510;56.468;-3.004;2023-08-06T05:05:27;100731.50;;;13.66;100.00
24390;BME280;12510;56.468;-3.004;2023-08-06T05:07:55;100737.31;;;13.70;100.00
24390;BME280;12510;56.468;-3.004;2023-08-06T05:10:25;100737.16;;;13.71;100.00
24390;BME280;12510;56.468;-3.004;2023-08-06T05:12:52;100740.44;;;13.65;100.00
24390;BME280;12510;56.468;-3.004;2023-08-06T05:15:19;100736.81;;;13.66;100.00
24390;BME280;12510;56.468;-3.004;2023-08-06T05:17:45;100744.47;;;13.78;100.00
24390;BME280;12510;56.468;-3.004;2023-08-06T05:20:12;100734.22;;;13.74;100.00
24390;BME280;12510;56.468;-3.004;2023-08-06T05:22:38;100736.38;;;13.79;100.00
24390;BME280;12510;56.468;-3.004;2023-08-06T05:25:05;100739.94;;;13.88;100.00
24390;BME280;12510;56.468;-3.004;2023-08-06T05:27:32;100745.94;;;13.98;100.00
24390;BME280;12510;56.468;-3.004;2023-08-06T05:29:58;100742.13;;;14.01;100.00
24390;BME280;12510;56.468;-3.004;2023-08-06T05:32:25;100738.69;;;14.00;100.00
24390;BME280;12510;56.468;-3.004;2023-08-06T05:34:51;100740.53;;;14.08;100.00
24390;BME280;12510;56.468;-3.004;2023-08-06T05:37:18;100750.69;;;14.21;100.00
24390;BME280;12510;56.468;-3.004;2023-08-06T05:39:44;100758.84;;;14.28;100.00
24390;BME280;12510;56.468;-3.004;2023-08-06T05:42:11;100761.72;;;14.42;100.00
24390;BME280;12510;56.468;-3.004;2023-08-06T05:44:37;100770.28;;;14.28;100.00
24390;BME280;12510;56.468;-3.004;2023-08-06T05:47:04;100775.63;;;14.36;100.00
24390;BME280;12510;56.468;-3.004;2023-08-06T05:49:30;100770.03;;;14.48;100.00
24390;BME280;12510;56.468;-3.004;2023-08-06T05:51:56;100774.09;;;14.60;100.00
24390;BME280;12510;56.468;-3.004;2023-08-06T05:54:23;100780.38;;;14.59;100.00
24390;BME280;12510;56.468;-3.004;2023-08-06T05:56:49;100781.19;;;14.59;100.00
24390;BME280;12510;56.468;-3.004;2023-08-06T05:59:16;100790.09;;;14.77;100.00
24390;BME280;12510;56.468;-3.004;2023-08-06T06:01:42;100789.88;;;14.70;100.00
24390;BME280;12510;56.468;-3.004;2023-08-06T06:04:08;100799.72;;;14.86;100.00
24390;BME280;12510;56.468;-3.004;2023-08-06T06:06:35;100805.06;;;14.94;100.00
24390;BME280;12510;56.468;-3.004;2023-08-06T06:09:01;100804.38;;;14.92;100.00
24390;BME280;12510;56.468;-3.004;2023-08-06T06:11:28;100804.09;;;15.03;100.00
24390;BME280;12510;56.468;-3.004;2023-08-06T06:13:54;100808.25;;;15.06;100.00
24390;BME280;12510;56.468;-3.004;2023-08-06T06:16:21;100809.75;;;15.08;100.00
24390;BME280;12510;56.468;-3.004;2023-08-06T06:18:47;100822.72;;;14.77;100.00
24390;BME280;12510;56.468;-3.004;2023-08-06T06:21:14;100822.31;;;14.98;100.00
24390;BME280;12510;56.468;-3.004;2023-08-06T06:23:40;100824.91;;;15.33;100.00
24390;BME280;12510;56.468;-3.004;2023-08-06T06:26:07;100840.88;;;15.06;100.00
24390;BME280;12510;56.468;-3.004;2023-08-06T06:28:33;100835.63;;;15.23;100.00
24390;BME280;12510;56.468;-3.004;2023-08-06T06:31:00;100829.88;;;15.52;100.00
24390;BME280;12510;56.468;-3.004;2023-08-06T06:33:27;100842.66;;;15.49;100.00
24390;BME280;12510;56.468;-3.004;2023-08-06T06:35:54;100834.53;;;15.58;100.00
24390;BME280;12510;56.468;-3.004;2023-08-06T06:38:20;100846.31;;;15.72;100.00
24390;BME280;12510;56.468;-3.004;2023-08-06T06:40:56;100843.66;;;15.72;100.00
24390;BME280;12510;56.468;-3.004;2023-08-06T06:43:23;100851.81;;;15.71;100.00
24390;BME280;12510;56.468;-3.004;2023-08-06T06:45:55;100841.50;;;15.51;100.00
24390;BME280;12510;56.468;-3.004;2023-08-06T06:48:22;100848.78;;;15.41;100.00
24390;BME280;12510;56.468;-3.004;2023-08-06T06:50:48;100845.59;;;15.29;100.00
24390;BME280;12510;56.468;-3.004;2023-08-06T06:53:15;100850.28;;;15.44;100.00
24390;BME280;12510;56.468;-3.004;2023-08-06T06:55:41;100847.72;;;15.85;100.00
24390;BME280;12510;56.468;-3.004;2023-08-06T06:58:07;100867.63;;;15.89;100.00
24390;BME280;12510;56.468;-3.004;2023-08-06T07:00:36;100851.88;;;15.96;100.00
24390;BME280;12510;56.468;-3.004;2023-08-06T07:03:03;100852.66;;;15.80;100.00
24390;BME280;12510;56.468;-3.004;2023-08-06T07:05:30;100860.63;;;16.04;100.00
24390;BME280;12510;56.468;-3.004;2023-08-06T07:07:56;100852.84;;;16.03;100.00
24390;BME280;12510;56.468;-3.004;2023-08-06T07:10:22;100822.28;;;16.15;100.00
24390;BME280;12510;56.468;-3.004;2023-08-06T07:12:49;100788.19;;;16.35;100.00
24390;BME280;12510;56.468;-3.004;2023-08-06T07:15:15;100761.63;;;16.27;100.00
24390;BME280;12510;56.468;-3.004;2023-08-06T07:17:43;100743.81;;;15.71;100.00
24390;BME280;12510;56.468;-3.004;2023-08-06T07:20:10;100727.94;;;16.19;100.00
24390;BME280;12510;56.468;-3.004;2023-08-06T07:22:37;100738.38;;;16.37;100.00
24390;BME280;12510;56.468;-3.004;2023-08-06T07:25:04;100734.41;;;16.33;100.00
24390;BME280;12510;56.468;-3.004;2023-08-06T07:27:30;100742.38;;;16.33;100.00
24390;BME280;12510;56.468;-3.004;2023-08-06T07:29:58;100746.22;;;16.22;100.00
24390;BME280;12510;56.468;-3.004;2023-08-06T07:32:24;100735.22;;;16.73;100.00
24390;BME280;12510;56.468;-3.004;2023-08-06T07:34:51;100744.00;;;17.14;100.00
24390;BME280;12510;56.468;-3.004;2023-08-06T07:37:23;100749.06;;;17.00;100.00
24390;BME280;12510;56.468;-3.004;2023-08-06T07:39:49;100739.66;;;17.13;100.00
24390;BME280;12510;56.468;-3.004;2023-08-06T07:42:15;100749.81;;;17.55;100.00
24390;BME280;12510;56.468;-3.004;2023-08-06T07:44:42;100750.25;;;16.98;100.00
24390;BME280;12510;56.468;-3.004;2023-08-06T07:47:08;100752.16;;;16.72;100.00
24390;BME280;12510;56.468;-3.004;2023-08-06T07:49:35;100755.94;;;17.18;100.00
24390;BME280;12510;56.468;-3.004;2023-08-06T07:52:01;100759.47;;;17.33;100.00
24390;BME280;12510;56.468;-3.004;2023-08-06T07:54:28;100763.50;;;17.29;100.00
24390;BME280;12510;56.468;-3.004;2023-08-06T07:56:55;100771.75;;;17.81;100.00
24390;BME280;12510;56.468;-3.004;2023-08-06T07:59:21;100767.03;;;17.83;100.00
24390;BME280;12510;56.468;-3.004;2023-08-06T08:01:48;100773.78;;;17.55;100.00
24390;BME280;12510;56.468;-3.004;2023-08-06T08:04:14;100765.50;;;17.27;100.00
24390;BME280;12510;56.468;-3.004;2023-08-06T08:06:41;100767.94;;;17.98;100.00
24390;BME280;12510;56.468;-3.004;2023-08-06T08:09:08;100762.63;;;18.28;100.00
24390;BME280;12510;56.468;-3.004;2023-08-06T08:11:34;100773.53;;;18.93;100.00
24390;BME280;12510;56.468;-3.004;2023-08-06T08:14:00;100768.06;;;19.01;100.00
24390;BME280;12510;56.468;-3.004;2023-08-06T08:16:27;100768.69;;;19.03;100.00
24390;BME280;12510;56.468;-3.004;2023-08-06T08:18:53;100762.94;;;19.21;100.00
24390;BME280;12510;56.468;-3.004;2023-08-06T08:21:20;100776.16;;;19.30;100.00
24390;BME280;12510;56.468;-3.004;2023-08-06T08:23:46;100777.75;;;19.46;100.00
24390;BME280;12510;56.468;-3.004;2023-08-06T08:26:13;100778.66;;;20.73;100.00
24390;BME280;12510;56.468;-3.004;2023-08-06T08:28:39;100776.56;;;21.43;100.00
24390;BME280;12510;56.468;-3.004;2023-08-06T08:31:10;100766.19;;;21.14;100.00
24390;BME280;12510;56.468;-3.004;2023-08-06T08:33:38;100762.53;;;21.48;100.00
24390;BME280;12510;56.468;-3.004;2023-08-06T08:36:04;100754.72;;;21.47;100.00
24390;BME280;12510;56.468;-3.004;2023-08-06T08:38:31;100753.25;;;21.51;100.00
24390;BME280;12510;56.468;-3.004;2023-08-06T08:40:57;100746.44;;;22.02;100.00
24390;BME280;12510;56.468;-3.004;2023-08-06T08:43:24;100760.53;;;21.64;100.00
24390;BME280;12510;56.468;-3.004;2023-08-06T08:45:51;100744.56;;;22.22;100.00
24390;BME280;12510;56.468;-3.004;2023-08-06T08:48:19;100752.50;;;22.63;100.00
24390;BME280;12510;56.468;-3.004;2023-08-06T08:50:47;100744.75;;;22.14;100.00
24390;BME280;12510;56.468;-3.004;2023-08-06T08:53:14;100746.47;;;21.95;100.00
24390;BME280;12510;56.468;-3.004;2023-08-06T08:55:43;100758.41;;;21.52;100.00
24390;BME280;12510;56.468;-3.004;2023-08-06T08:58:10;100755.53;;;21.94;100.00
24390;BME280;12510;56.468;-3.004;2023-08-06T09:00:37;100747.16;;;22.56;100.00
24390;BME280;12510;56.468;-3.004;2023-08-06T09:03:06;100736.56;;;22.61;100.00
24390;BME280;12510;56.468;-3.004;2023-08-06T09:05:33;100742.47;;;22.83;100.00
24390;BME280;12510;56.468;-3.004;2023-08-06T09:08:03;100752.81;;;23.18;100.00
24390;BME280;12510;56.468;-3.004;2023-08-06T09:10:30;100745.06;;;24.60;100.00
24390;BME280;12510;56.468;-3.004;2023-08-06T09:12:57;100759.66;;;24.15;100.00
24390;BME280;12510;56.468;-3.004;2023-08-06T09:15:25;100761.22;;;23.29;100.00
24390;BME280;12510;56.468;-3.004;2023-08-06T09:17:53;100752.84;;;24.31;100.00
24390;BME280;12510;56.468;-3.004;2023-08-06T09:20:21;100754.66;;;25.17;100.00
24390;BME280;12510;56.468;-3.004;2023-08-06T09:22:47;100756.06;;;24.58;100.00
24390;BME280;12510;56.468;-3.004;2023-08-06T09:25:22;100747.66;;;23.10;100.00
24390;BME280;12510;56.468;-3.004;2023-08-06T09:27:50;100757.66;;;23.85;100.00
24390;BME280;12510;56.468;-3.004;2023-08-06T09:30:31;100739.84;;;24.47;100.00
24390;BME280;12510;56.468;-3.004;2023-08-06T09:32:58;100737.56;;;23.37;100.00
24390;BME280;12510;56.468;-3.004;2023-08-06T09:35:28;100742.31;;;23.67;100.00
24390;BME280;12510;56.468;-3.004;2023-08-06T09:37:55;100752.50;;;22.94;100.00
24390;BME280;12510;56.468;-3.004;2023-08-06T09:40:31;100729.56;;;23.56;100.00
24390;BME280;12510;56.468;-3.004;2023-08-06T09:42:58;100732.84;;;23.83;100.00
24390;BME280;12510;56.468;-3.004;2023-08-06T09:45:30;100731.31;;;23.94;100.00
24390;BME280;12510;56.468;-3.004;2023-08-06T09:47:57;100752.75;;;22.86;100.00
24390;BME280;12510;56.468;-3.004;2023-08-06T09:50:29;100760.13;;;23.04;100.00
24390;BME280;12510;56.468;-3.004;2023-08-06T09:52:57;100760.44;;;21.17;100.00
24390;BME280;12510;56.468;-3.004;2023-08-06T09:55:24;100757.38;;;21.47;100.00
24390;BME280;12510;56.468;-3.004;2023-08-06T09:57:53;100754.47;;;22.15;100.00
24390;BME280;12510;56.468;-3.004;2023-08-06T10:00:20;100771.25;;;21.57;100.00
24390;BME280;12510;56.468;-3.004;2023-08-06T10:02:47;100771.28;;;20.82;100.00
24390;BME280;12510;56.468;-3.004;2023-08-06T10:05:15;100766.09;;;20.80;100.00
24390;BME280;12510;56.468;-3.004;2023-08-06T10:07:43;100783.22;;;20.09;100.00
24390;BME280;12510;56.468;-3.004;2023-08-06T10:10:10;100760.50;;;21.70;100.00
24390;BME280;12510;56.468;-3.004;2023-08-06T10:12:44;100765.03;;;21.90;100.00
24390;BME280;12510;56.468;-3.004;2023-08-06T10:15:15;100761.53;;;21.69;100.00
24390;BME280;12510;56.468;-3.004;2023-08-06T10:17:45;100752.97;;;20.99;100.00
24390;BME280;12510;56.468;-3.004;2023-08-06T10:20:12;100757.34;;;21.06;100.00
24390;BME280;12510;56.468;-3.004;2023-08-06T10:22:43;100746.44;;;21.15;100.00
24390;BME280;12510;56.468;-3.004;2023-08-06T10:25:10;100754.28;;;21.43;100.00
24390;BME280;12510;56.468;-3.004;2023-08-06T10:27:41;100748.84;;;20.96;100.00
24390;BME280;12510;56.468;-3.004;2023-08-06T10:30:32;100753.69;;;21.81;100.00
24390;BME280;12510;56.468;-3.004;2023-08-06T10:32:59;100745.69;;;21.61;100.00
24390;BME280;12510;56.468;-3.004;2023-08-06T10:35:36;100745.22;;;21.24;100.00
24390;BME280;12510;56.468;-3.004;2023-08-06T10:38:14;100744.56;;;21.02;100.00
24390;BME280;12510;56.468;-3.004;2023-08-06T10:41:03;100746.25;;;21.30;100.00
24390;BME280;12510;56.468;-3.004;2023-08-06T10:43:33;100742.34;;;21.79;100.00
24390;BME280;12510;56.468;-3.004;2023-08-06T10:46:02;100740.19;;;22.28;100.00
24390;BME280;12510;56.468;-3.004;2023-08-06T10:48:38;100742.78;;;21.56;100.00
24390;BME280;12510;56.468;-3.004;2023-08-06T10:51:12;100739.44;;;21.94;100.00
24390;BME280;12510;56.468;-3.004;2023-08-06T10:53:44;100730.41;;;21.62;97.08
24390;BME280;12510;56.468;-3.004;2023-08-06T10:56:18;100729.69;;;22.26;93.63
24390;BME280;12510;56.468;-3.004;2023-08-06T10:58:46;100739.75;;;22.31;99.15
24390;BME280;12510;56.468;-3.004;2023-08-06T11:01:13;100716.88;;;22.29;90.33
24390;BME280;12510;56.468;-3.004;2023-08-06T11:03:46;100739.03;;;22.04;94.95
24390;BME280;12510;56.468;-3.004;2023-08-06T11:06:22;100743.69;;;22.29;97.84
24390;BME280;12510;56.468;-3.004;2023-08-06T11:08:53;100745.78;;;22.20;98.79
24390;BME280;12510;56.468;-3.004;2023-08-06T11:11:21;100749.75;;;21.37;100.00
24390;BME280;12510;56.468;-3.004;2023-08-06T11:13:50;100741.28;;;22.07;99.64
24390;BME280;12510;56.468;-3.004;2023-08-06T11:16:19;100746.06;;;21.91;100.00
24390;BME280;12510;56.468;-3.004;2023-08-06T11:18:46;100744.63;;;21.96;100.00
24390;BME280;12510;56.468;-3.004;2023-08-06T11:21:13;100742.34;;;21.52;100.00
24390;BME280;12510;56.468;-3.004;2023-08-06T11:23:43;100735.31;;;22.05;100.00
24390;BME280;12510;56.468;-3.004;2023-08-06T11:26:09;100749.81;;;21.57;100.00
24390;BME280;12510;56.468;-3.004;2023-08-06T11:28:35;100743.56;;;21.50;100.00
24390;BME280;12510;56.468;-3.004;2023-08-06T11:31:02;100734.06;;;22.66;100.00
24390;BME280;12510;56.468;-3.004;2023-08-06T11:33:30;100748.16;;;23.00;100.00
24390;BME280;12510;56.468;-3.004;2023-08-06T11:35:58;100738.41;;;23.06;100.00
24390;BME280;12510;56.468;-3.004;2023-08-06T11:38:26;100751.78;;;22.15;100.00
24390;BME280;12510;56.468;-3.004;2023-08-06T11:40:54;100753.91;;;21.80;100.00
24390;BME280;12510;56.468;-3.004;2023-08-06T11:43:21;100762.53;;;21.48;100.00
24390;BME280;12510;56.468;-3.004;2023-08-06T11:45:49;100747.88;;;22.11;100.00
24390;BME280;12510;56.468;-3.004;2023-08-06T11:48:17;100746.44;;;22.08;100.00
24390;BME280;12510;56.468;-3.004;2023-08-06T11:50:44;100748.69;;;22.25;100.00
24390;BME280;12510;56.468;-3.004;2023-08-06T11:53:13;100751.75;;;22.29;100.00
24390;BME280;12510;56.468;-3.004;2023-08-06T11:55:43;100754.63;;;22.34;100.00
24390;BME280;12510;56.468;-3.004;2023-08-06T11:58:10;100752.03;;;21.80;100.00
24390;BME280;12510;56.468;-3.004;2023-08-06T12:00:38;100745.34;;;22.36;100.00
24390;BME280;12510;56.468;-3.004;2023-08-06T12:03:05;100757.41;;;21.93;100.00
24390;BME280;12510;56.468;-3.004;2023-08-06T12:05:32;100757.59;;;21.52;100.00
24390;BME280;12510;56.468;-3.004;2023-08-06T12:08:02;100748.44;;;22.33;100.00
24390;BME280;12510;56.468;-3.004;2023-08-06T12:10:30;100748.53;;;21.86;100.00
24390;BME280;12510;56.468;-3.004;2023-08-06T12:12:57;100746.78;;;22.32;100.00
24390;BME280;12510;56.468;-3.004;2023-08-06T12:15:24;100749.69;;;22.24;100.00
24390;BME280;12510;56.468;-3.004;2023-08-06T12:17:51;100740.78;;;22.43;100.00
24390;BME280;12510;56.468;-3.004;2023-08-06T12:20:18;100758.06;;;23.00;100.00
24390;BME280;12510;56.468;-3.004;2023-08-06T12:22:44;100755.50;;;22.07;100.00
24390;BME280;12510;56.468;-3.004;2023-08-06T12:25:12;100761.88;;;22.26;100.00
24390;BME280;12510;56.468;-3.004;2023-08-06T12:27:42;100761.47;;;22.23;100.00
24390;BME280;12510;56.468;-3.004;2023-08-06T12:30:10;100762.97;;;21.85;100.00
24390;BME280;12510;56.468;-3.004;2023-08-06T12:32:37;100752.03;;;21.80;100.00
24390;BME280;12510;56.468;-3.004;2023-08-06T12:35:04;100758.19;;;21.34;100.00
24390;BME280;12510;56.468;-3.004;2023-08-06T12:37:33;100758.00;;;21.35;100.00
24390;BME280;12510;56.468;-3.004;2023-08-06T12:40:00;100770.63;;;20.80;100.00